Time;durP1;ratioP1;P1;durP2;ratioP2;P2;SDS_P1;SDS_P2;PMS_P1;PMS_P2;Temp;Humidity;BMP_temperature;BMP_pressure;BME280_temperature;BME280_humidity;BME280_pressure;Samples;Min_cycle;Max_cycle;Signal;HPM_P1;HPM_P2
2023/12/16 00:02:03;;;;;;;4.03;1.92;;;10.60;99.90;;;;;;5015079;28;20122;-22
2023/12/16 00:04:30;;;;;;;4.30;2.20;;;10.60;99.90;;;;;;5018780;28;20039;-23
2023/12/16 00:06:56;;;;;;;6.20;2.20;;;10.60;99.90;;;;;;5002015;28;20116;-22
2023/12/16 00:09:21;;;;;;;7.88;2.40;;;10.60;99.90;;;;;;5016136;28;20035;-23
2023/12/16 00:11:47;;;;;;;5.75;2.30;;;10.60;99.90;;;;;;5004131;28;20325;-22
2023/12/16 00:14:13;;;;;;;5.83;2.30;;;10.60;99.90;;;;;;5005329;28;20251;-23
2023/12/16 00:16:45;;;;;;;5.15;2.22;;;10.60;99.90;;;;;;5020406;28;20112;-23
2023/12/16 00:19:11;;;;;;;7.82;2.20;;;10.60;99.90;;;;;;4988924;28;20403;-22
2023/12/16 00:21:37;;;;;;;5.95;2.20;;;10.60;99.90;;;;;;5026778;28;20048;-22
2023/12/16 00:24:04;;;;;;;5.83;2.30;;;10.60;99.90;;;;;;4999308;28;20255;-23
2023/12/16 00:26:31;;;;;;;4.20;2.25;;;10.60;99.90;;;;;;5017024;28;20071;-23
2023/12/16 00:28:56;;;;;;;6.05;2.42;;;10.60;99.90;;;;;;5017818;28;20040;-22
2023/12/16 00:31:22;;;;;;;5.17;2.30;;;10.60;99.90;;;;;;4999826;28;20033;-22
2023/12/16 00:33:48;;;;;;;6.93;2.22;;;10.60;99.90;;;;;;5019730;28;20065;-22
2023/12/16 00:36:13;;;;;;;5.67;2.17;;;10.60;99.90;;;;;;5022873;28;20306;-23
2023/12/16 00:38:39;;;;;;;6.53;2.53;;;10.60;99.90;;;;;;4996132;28;23504;-23
2023/12/16 00:41:05;;;;;;;5.80;2.40;;;10.50;99.90;;;;;;5023964;28;20029;-20
2023/12/16 00:43:31;;;;;;;5.22;2.00;;;10.60;99.90;;;;;;4999839;28;20022;-20
2023/12/16 00:45:57;;;;;;;3.30;1.80;;;10.50;99.90;;;;;;5013819;28;20036;-20
2023/12/16 00:48:23;;;;;;;3.23;1.97;;;10.50;99.90;;;;;;5019225;28;20037;-20
2023/12/16 00:50:48;;;;;;;4.43;2.05;;;10.50;99.90;;;;;;5015634;28;20040;-21
2023/12/16 00:53:14;;;;;;;5.90;2.17;;;10.50;99.90;;;;;;4994927;28;21983;-20
2023/12/16 00:55:40;;;;;;;4.93;2.00;;;10.60;99.90;;;;;;4984663;28;20028;-21
2023/12/16 00:58:07;;;;;;;5.50;2.17;;;10.50;99.90;;;;;;5019027;28;20025;-20
2023/12/16 01:00:32;;;;;;;4.68;1.90;;;10.50;99.90;;;;;;4996053;28;20862;-20
2023/12/16 01:02:58;;;;;;;3.10;1.90;;;10.60;99.90;;;;;;4989456;28;20098;-20
2023/12/16 01:05:25;;;;;;;4.55;2.08;;;10.50;99.90;;;;;;4979850;28;20816;-20
2023/12/16 01:07:50;;;;;;;4.95;2.13;;;10.60;99.90;;;;;;5010325;28;20811;-21
2023/12/16 01:10:16;;;;;;;3.73;1.80;;;10.50;99.90;;;;;;5025407;28;20022;-20
2023/12/16 01:12:42;;;;;;;7.25;2.03;;;10.60;99.90;;;;;;5015648;28;20509;-20
2023/12/16 01:15:08;;;;;;;3.43;1.70;;;10.50;99.90;;;;;;5018731;28;20227;-20
2023/12/16 01:17:34;;;;;;;5.38;1.85;;;10.50;99.90;;;;;;5017955;28;20059;-20
2023/12/16 01:20:00;;;;;;;5.32;2.03;;;10.50;99.90;;;;;;5015332;28;20577;-20
2023/12/16 01:22:25;;;;;;;3.40;1.70;;;10.50;99.90;;;;;;5028628;28;20104;-19
2023/12/16 01:24:51;;;;;;;6.40;2.05;;;10.60;99.90;;;;;;4972211;28;20034;-20
2023/12/16 01:27:17;;;;;;;3.93;1.60;;;10.50;99.90;;;;;;5027567;28;20172;-19
2023/12/16 01:29:43;;;;;;;3.63;1.70;;;10.50;99.90;;;;;;5018393;28;20056;-20
2023/12/16 01:32:10;;;;;;;4.55;1.60;;;10.60;99.90;;;;;;4985904;28;20350;-20
2023/12/16 01:34:35;;;;;;;5.33;1.67;;;10.60;99.90;;;;;;5007368;28;20040;-20
2023/12/16 01:37:01;;;;;;;5.60;1.60;;;10.50;99.90;;;;;;5005532;28;20041;-20
2023/12/16 01:39:27;;;;;;;3.57;1.67;;;10.60;99.90;;;;;;4977448;28;20375;-21
2023/12/16 01:41:53;;;;;;;3.85;1.48;;;10.40;99.90;;;;;;5024988;28;20040;-20
2023/12/16 01:44:18;;;;;;;2.80;1.63;;;10.50;99.90;;;;;;5015489;28;20478;-21
2023/12/16 01:46:45;;;;;;;4.63;1.60;;;10.60;99.90;;;;;;5023715;28;20639;-20
2023/12/16 01:49:11;;;;;;;4.32;1.60;;;10.60;99.90;;;;;;4994961;28;20482;-20
2023/12/16 01:51:37;;;;;;;4.03;1.50;;;10.50;99.90;;;;;;5020438;28;20108;-20
2023/12/16 01:54:04;;;;;;;4.37;1.60;;;10.50;99.90;;;;;;5033096;28;20029;-21
2023/12/16 01:56:31;;;;;;;4.88;1.52;;;10.50;99.90;;;;;;4993041;28;20029;-21
2023/12/16 01:58:57;;;;;;;5.20;1.60;;;10.60;99.90;;;;;;5029861;28;20020;-20
2023/12/16 02:01:23;;;;;;;6.87;1.60;;;10.60;99.90;;;;;;4988383;28;20458;-21
2023/12/16 02:03:50;;;;;;;4.87;1.50;;;10.50;99.90;;;;;;5019800;28;20279;-20
2023/12/16 02:06:16;;;;;;;3.33;1.52;;;10.60;99.90;;;;;;5031599;28;20033;-21
2023/12/16 02:08:42;;;;;;;3.05;1.50;;;10.60;99.90;;;;;;4991615;28;20235;-20
2023/12/16 02:11:10;;;;;;;5.30;1.40;;;10.50;99.90;;;;;;5032428;28;20032;-20
2023/12/16 02:13:41;;;;;;;3.47;1.48;;;10.50;99.90;;;;;;4994635;28;20016;-20
2023/12/16 02:16:09;;;;;;;4.90;1.77;;;10.50;99.90;;;;;;4994563;28;20478;-20
2023/12/16 02:18:35;;;;;;;3.88;1.50;;;10.50;99.90;;;;;;5027365;28;20029;-20
2023/12/16 02:21:01;;;;;;;4.35;1.40;;;10.50;99.90;;;;;;5024561;28;20078;-20
2023/12/16 02:23:27;;;;;;;4.93;1.70;;;10.50;99.90;;;;;;5005199;28;20051;-21
2023/12/16 02:25:53;;;;;;;4.78;1.88;;;12.70;99.90;;;;;;4994934;28;20057;-20
2023/12/16 02:28:19;;;;;;;2.83;1.47;;;10.40;99.90;;;;;;4989600;28;20033;-21
2023/12/16 02:30:45;;;;;;;6.13;1.60;;;10.40;99.90;;;;;;4999671;28;20720;-20
2023/12/16 02:33:10;;;;;;;3.65;1.50;;;10.40;99.90;;;;;;5000174;28;20021;-20
2023/12/16 02:35:36;;;;;;;5.00;1.70;;;10.30;99.90;;;;;;5001417;28;20037;-20
2023/12/16 02:38:02;;;;;;;4.70;1.50;;;10.30;99.90;;;;;;5004294;28;20038;-20
2023/12/16 02:40:28;;;;;;;3.57;1.70;;;10.30;99.90;;;;;;5009609;28;20079;-21
2023/12/16 02:42:54;;;;;;;3.08;1.27;;;10.20;99.90;;;;;;4988815;28;20029;-20
2023/12/16 02:45:19;;;;;;;4.90;1.67;;;10.20;99.90;;;;;;5010384;28;20610;-20
2023/12/16 02:47:45;;;;;;;4.57;1.43;;;10.20;99.90;;;;;;5003781;28;20036;-20
2023/12/16 02:50:11;;;;;;;3.75;1.50;;;10.10;99.90;;;;;;4995593;28;20018;-20
2023/12/16 02:52:37;;;;;;;4.93;1.50;;;10.10;99.90;;;;;;4993615;28;20018;-20
2023/12/16 02:55:03;;;;;;;5.43;1.80;;;10.10;99.90;;;;;;4997820;28;20124;-20
2023/12/16 02:57:29;;;;;;;6.63;2.25;;;10.10;99.90;;;;;;5012052;28;20041;-20
2023/12/16 02:59:55;;;;;;;5.25;1.55;;;9.40;99.90;;;;;;4985232;28;20040;-21
2023/12/16 03:02:20;;;;;;;3.73;1.40;;;10.10;99.90;;;;;;5002399;28;20041;-23
2023/12/16 03:04:46;;;;;;;6.18;2.00;;;10.10;99.90;;;;;;5007587;28;20041;-22
2023/12/16 03:07:13;;;;;;;5.83;2.03;;;10.10;99.90;;;;;;4972515;28;20300;-22
2023/12/16 03:09:39;;;;;;;5.45;1.58;;;10.00;99.90;;;;;;4974761;28;20052;-22
2023/12/16 03:12:06;;;;;;;7.00;2.10;;;10.00;99.90;;;;;;4997098;28;20135;-23
2023/12/16 03:14:34;;;;;;;4.93;1.95;;;10.00;99.90;;;;;;4990411;28;20025;-23
2023/12/16 03:16:59;;;;;;;4.22;1.85;;;10.00;99.90;;;;;;4995579;28;20252;-23
2023/12/16 03:19:27;;;;;;;7.40;1.80;;;10.00;99.90;;;;;;5001363;28;20094;-22
2023/12/16 03:21:53;;;;;;;5.22;1.85;;;10.00;99.90;;;;;;5010258;28;20018;-22
2023/12/16 03:24:18;;;;;;;3.50;1.60;;;9.90;99.90;;;;;;4993098;28;20048;-23
2023/12/16 03:26:44;;;;;;;3.38;1.60;;;9.90;99.90;;;;;;5025777;28;20041;-22
2023/12/16 03:29:11;;;;;;;4.35;1.77;;;9.90;99.90;;;;;;4989236;28;20246;-22
2023/12/16 03:31:37;;;;;;;5.63;1.80;;;9.90;99.90;;;;;;5014597;28;20035;-22
2023/12/16 03:34:02;;;;;;;4.35;1.90;;;9.90;99.90;;;;;;5019846;28;20036;-23
2023/12/16 03:36:28;;;;;;;5.97;1.63;;;9.90;99.90;;;;;;5018628;28;20380;-23
2023/12/16 03:38:54;;;;;;;5.72;1.83;;;9.90;99.90;;;;;;4988970;28;20045;-22
2023/12/16 03:41:20;;;;;;;5.27;1.83;;;9.90;99.90;;;;;;5022002;28;20033;-23
2023/12/16 03:43:45;;;;;;;5.65;1.90;;;9.90;99.90;;;;;;5032072;28;20155;-22
2023/12/16 03:46:11;;;;;;;5.27;1.70;;;9.90;99.90;;;;;;5003291;28;20270;-23
2023/12/16 03:48:37;;;;;;;4.68;1.70;;;9.80;99.90;;;;;;5021063;28;20037;-23
2023/12/16 03:51:03;;;;;;;4.43;2.00;;;9.90;99.90;;;;;;4997883;28;20746;-23
2023/12/16 03:53:29;;;;;;;4.13;1.97;;;9.80;99.90;;;;;;5030298;28;20025;-23
2023/12/16 03:55:54;;;;;;;6.30;1.90;;;9.80;99.90;;;;;;4990898;28;20041;-22
2023/12/16 03:58:20;;;;;;;5.17;1.77;;;9.80;99.90;;;;;;4987747;28;20103;-23
2023/12/16 04:00:46;;;;;;;4.22;1.88;;;9.80;99.90;;;;;;5013266;28;20025;-22
2023/12/16 04:03:12;;;;;;;5.97;2.15;;;9.80;99.90;;;;;;5012495;28;20064;-23
2023/12/16 04:05:37;;;;;;;6.33;2.20;;;9.70;99.90;;;;;;5004104;28;20459;-23
2023/12/16 04:08:04;;;;;;;5.00;1.98;;;9.70;99.90;;;;;;5024118;28;20037;-22
2023/12/16 04:10:30;;;;;;;4.88;1.90;;;9.70;99.90;;;;;;5019843;28;20411;-22
2023/12/16 04:12:56;;;;;;;4.83;1.60;;;9.70;99.90;;;;;;4973519;28;20471;-22
2023/12/16 04:15:22;;;;;;;4.03;1.67;;;11.00;99.90;;;;;;5029838;28;20122;-22
2023/12/16 04:17:47;;;;;;;5.07;2.00;;;9.60;99.90;;;;;;4970059;28;20506;-22
2023/12/16 04:20:13;;;;;;;4.45;1.60;;;9.60;99.90;;;;;;5001436;28;20225;-23
2023/12/16 04:22:39;;;;;;;4.13;1.60;;;9.60;99.90;;;;;;5028156;28;20479;-23
2023/12/16 04:25:10;;;;;;;4.53;1.70;;;9.50;99.90;;;;;;5021628;28;20345;-22
2023/12/16 04:27:37;;;;;;;4.47;1.70;;;9.50;99.90;;;;;;4992955;28;20037;-22
2023/12/16 04:30:06;;;;;;;6.82;2.05;;;9.50;99.90;;;;;;5014694;28;20056;-22
2023/12/16 04:32:31;;;;;;;6.78;2.03;;;9.50;99.90;;;;;;5030577;28;20754;-22
2023/12/16 04:34:57;;;;;;;5.00;1.90;;;9.50;99.90;;;;;;4974009;28;20025;-22
2023/12/16 04:37:23;;;;;;;5.00;2.10;;;9.40;99.90;;;;;;5007933;28;20361;-23
2023/12/16 04:39:49;;;;;;;5.85;1.88;;;9.50;99.90;;;;;;5012523;28;20028;-22
2023/12/16 04:42:15;;;;;;;5.45;2.03;;;9.40;99.90;;;;;;5018854;28;21768;-23
2023/12/16 04:44:41;;;;;;;6.43;2.20;;;9.40;99.90;;;;;;5021574;28;20033;-22
2023/12/16 04:47:07;;;;;;;4.20;1.70;;;9.40;99.90;;;;;;5028765;28;20664;-22
2023/12/16 04:49:33;;;;;;;5.38;1.90;;;9.30;99.90;;;;;;4989534;28;20028;-22
2023/12/16 04:51:59;;;;;;;7.22;1.50;;;9.30;99.90;;;;;;4981122;28;20099;-23
2023/12/16 04:54:28;;;;;;;6.13;1.80;;;9.40;99.90;;;;;;5027447;28;20498;-22
2023/12/16 04:56:53;;;;;;;5.78;1.77;;;9.30;99.90;;;;;;4997664;28;20492;-22
2023/12/16 04:59:19;;;;;;;5.50;1.70;;;9.30;99.90;;;;;;5020119;28;20025;-23
2023/12/16 05:01:45;;;;;;;4.57;1.60;;;9.30;99.90;;;;;;5026570;28;20033;-22
2023/12/16 05:04:11;;;;;;;3.17;1.37;;;9.30;99.90;;;;;;4992192;28;20845;-23
2023/12/16 05:06:36;;;;;;;4.35;1.63;;;9.20;99.90;;;;;;5017738;28;20041;-22
2023/12/16 05:09:02;;;;;;;4.47;1.60;;;9.20;99.90;;;;;;4982797;28;20341;-23
2023/12/16 05:11:29;;;;;;;5.95;1.90;;;9.20;99.90;;;;;;5026137;28;20018;-23
2023/12/16 05:13:55;;;;;;;5.22;1.40;;;9.20;99.90;;;;;;4993501;28;20033;-23
2023/12/16 05:16:21;;;;;;;3.13;1.30;;;9.20;99.90;;;;;;5010186;28;20017;-22
2023/12/16 05:18:47;;;;;;;4.18;1.60;;;9.10;99.90;;;;;;5009770;28;20029;-22
2023/12/16 05:21:13;;;;;;;4.93;1.50;;;9.10;99.90;;;;;;4984761;28;20112;-20
2023/12/16 05:23:38;;;;;;;5.30;1.60;;;9.10;99.90;;;;;;5019794;28;20110;-20
2023/12/16 05:26:04;;;;;;;3.33;1.40;;;9.10;99.90;;;;;;5022375;28;20098;-20
2023/12/16 05:28:33;;;;;;;5.00;1.70;;;9.10;99.90;;;;;;4999491;28;20033;-20
2023/12/16 05:30:59;;;;;;;4.95;1.70;;;9.10;99.90;;;;;;4998497;28;20664;-19
2023/12/16 05:33:25;;;;;;;5.10;1.38;;;9.00;99.90;;;;;;5028592;28;20029;-19
2023/12/16 05:35:50;;;;;;;5.13;1.50;;;9.00;99.90;;;;;;4990686;28;20036;-20
2023/12/16 05:38:16;;;;;;;3.67;1.30;;;10.80;99.90;;;;;;5001604;28;20072;-20
2023/12/16 05:40:42;;;;;;;4.78;1.67;;;9.00;99.90;;;;;;4995558;28;20132;-20
2023/12/16 05:43:08;;;;;;;3.30;1.60;;;8.90;99.90;;;;;;5027036;28;20353;-20
2023/12/16 05:45:34;;;;;;;4.97;1.35;;;8.90;99.90;;;;;;5012668;28;20060;-20
2023/12/16 05:48:00;;;;;;;4.07;1.38;;;8.90;99.90;;;;;;4963505;28;20029;-20
2023/12/16 05:50:26;;;;;;;4.17;1.60;;;8.90;99.90;;;;;;5025789;28;20095;-20
2023/12/16 05:52:51;;;;;;;4.22;1.50;;;8.90;99.90;;;;;;5003414;28;20036;-20
2023/12/16 05:55:17;;;;;;;4.57;1.50;;;8.90;99.90;;;;;;5028435;28;20431;-20
2023/12/16 05:57:43;;;;;;;3.95;1.42;;;8.90;99.90;;;;;;5024504;28;20032;-20
2023/12/16 06:00:09;;;;;;;5.18;1.30;;;8.90;99.90;;;;;;4983794;28;20056;-20
2023/12/16 06:02:35;;;;;;;4.27;1.20;;;8.90;99.90;;;;;;4978537;28;20033;-20
2023/12/16 06:05:02;;;;;;;4.43;1.48;;;8.90;99.90;;;;;;5018870;28;20569;-20
2023/12/16 06:07:27;;;;;;;3.92;1.08;;;8.90;99.90;;;;;;5006450;28;20030;-20
2023/12/16 06:09:53;;;;;;;5.13;1.20;;;9.00;99.90;;;;;;5011389;28;20214;-20
2023/12/16 06:12:19;;;;;;;6.60;1.80;;;8.90;99.90;;;;;;5027682;28;20060;-20
2023/12/16 06:14:46;;;;;;;7.55;1.98;;;8.90;99.90;;;;;;4978037;28;20135;-19
2023/12/16 06:17:12;;;;;;;6.05;1.92;;;8.90;99.90;;;;;;5007237;28;20373;-20
2023/12/16 06:19:38;;;;;;;3.20;1.20;;;8.90;99.90;;;;;;5003962;28;20020;-21
2023/12/16 06:22:03;;;;;;;4.03;1.30;;;8.90;99.90;;;;;;5013169;28;20057;-20
2023/12/16 06:24:29;;;;;;;3.70;1.10;;;8.90;99.90;;;;;;5007630;28;20044;-20
2023/12/16 06:26:55;;;;;;;4.10;1.20;;;8.90;99.90;;;;;;5031244;28;20318;-20
2023/12/16 06:29:21;;;;;;;4.67;1.40;;;8.80;99.90;;;;;;5001562;28;20754;-20
2023/12/16 06:31:47;;;;;;;5.82;1.27;;;8.90;99.90;;;;;;4995780;28;20656;-20
2023/12/16 06:34:16;;;;;;;5.30;1.27;;;8.90;99.90;;;;;;5030862;28;20098;-20
2023/12/16 06:36:42;;;;;;;5.85;1.50;;;8.80;99.90;;;;;;5014860;28;20463;-20
2023/12/16 06:39:08;;;;;;;5.85;1.42;;;8.80;99.90;;;;;;4988846;28;20051;-20
2023/12/16 06:41:34;;;;;;;3.37;1.57;;;8.80;99.90;;;;;;5027054;28;20040;-20
2023/12/16 06:44:00;;;;;;;4.03;1.20;;;8.80;99.90;;;;;;5031072;28;20238;-20
2023/12/16 06:46:26;;;;;;;3.90;1.38;;;8.80;99.90;;;;;;5007608;28;20116;-20
2023/12/16 06:48:52;;;;;;;4.00;1.00;;;8.80;99.90;;;;;;5007217;28;20448;-20
2023/12/16 06:51:17;;;;;;;4.15;1.40;;;8.80;99.90;;;;;;5019179;28;20762;-19
2023/12/16 06:53:43;;;;;;;4.03;1.60;;;8.80;99.90;;;;;;5014259;28;20816;-19
2023/12/16 06:56:09;;;;;;;4.20;1.30;;;8.70;99.90;;;;;;5006767;28;20482;-20
2023/12/16 06:58:36;;;;;;;4.25;1.20;;;8.80;99.90;;;;;;5028607;28;20053;-21
2023/12/16 07:01:02;;;;;;;4.68;1.30;;;8.70;99.90;;;;;;5013135;28;20071;-20
2023/12/16 07:03:28;;;;;;;5.27;1.30;;;8.70;99.90;;;;;;4998407;28;20541;-21
2023/12/16 07:05:55;;;;;;;3.90;1.30;;;8.80;99.90;;;;;;5027372;28;20084;-20
2023/12/16 07:08:21;;;;;;;5.75;1.40;;;8.70;99.90;;;;;;5008552;28;20037;-20
2023/12/16 07:10:46;;;;;;;6.40;1.20;;;8.80;99.90;;;;;;4968394;28;21405;-20
2023/12/16 07:13:12;;;;;;;5.20;1.38;;;8.80;99.90;;;;;;5031612;28;20075;-20
2023/12/16 07:15:38;;;;;;;3.97;1.40;;;8.80;99.90;;;;;;5012051;28;20021;-20
2023/12/16 07:18:04;;;;;;;3.58;1.10;;;8.90;99.90;;;;;;4964050;28;20029;-20
2023/12/16 07:20:30;;;;;;;3.70;1.25;;;8.90;99.90;;;;;;5027484;28;20036;-20
2023/12/16 07:22:56;;;;;;;4.85;1.48;;;9.00;99.90;;;;;;5016970;28;20270;-20
2023/12/16 07:25:22;;;;;;;5.40;1.50;;;9.00;99.90;;;;;;5029972;28;20171;-20
2023/12/16 07:27:48;;;;;;;3.17;1.10;;;9.10;99.90;;;;;;5002960;28;20428;-19
2023/12/16 07:30:15;;;;;;;4.67;1.20;;;9.10;99.90;;;;;;5033468;28;20049;-20
2023/12/16 07:32:41;;;;;;;4.45;1.35;;;9.20;99.90;;;;;;5000627;28;20363;-20
2023/12/16 07:35:12;;;;;;;5.47;1.48;;;9.20;99.90;;;;;;4992179;28;20021;-20
2023/12/16 07:37:40;;;;;;;4.53;1.50;;;9.30;99.90;;;;;;5029499;28;20036;-21
2023/12/16 07:40:08;;;;;;;3.95;1.33;;;9.40;99.90;;;;;;5006451;28;20029;-19
2023/12/16 07:42:39;;;;;;;3.95;1.85;;;9.40;99.90;;;;;;4992357;28;20026;-21
2023/12/16 07:45:06;;;;;;;3.00;1.10;;;9.50;99.90;;;;;;5027694;28;20108;-20
2023/12/16 07:47:35;;;;;;;4.25;1.10;;;9.50;99.90;;;;;;5026886;28;20087;-20
2023/12/16 07:50:00;;;;;;;9.77;1.97;;;9.60;99.90;;;;;;4996589;28;20048;-19
2023/12/16 07:52:27;;;;;;;2.83;1.00;;;9.60;99.90;;;;;;5005078;28;20033;-20
2023/12/16 07:54:52;;;;;;;4.63;1.13;;;9.60;99.90;;;;;;5005068;28;20337;-20
2023/12/16 07:57:18;;;;;;;4.10;1.40;;;9.60;99.90;;;;;;5003460;28;20060;-20
2023/12/16 07:59:46;;;;;;;4.88;1.10;;;9.70;99.90;;;;;;5013815;28;20296;-20
2023/12/16 08:02:11;;;;;;;4.22;1.17;;;9.70;99.90;;;;;;5029095;28;20236;-20
2023/12/16 08:04:40;;;;;;;4.47;1.33;;;9.70;99.90;;;;;;4983155;28;20656;-21
2023/12/16 08:07:06;;;;;;;5.00;1.35;;;9.80;99.90;;;;;;5028438;28;20022;-20
2023/12/16 08:09:32;;;;;;;4.30;1.10;;;9.80;99.90;;;;;;5022086;28;20091;-21
2023/12/16 08:11:58;;;;;;;5.53;1.50;;;9.80;99.90;;;;;;4986348;28;20654;-20
2023/12/16 08:14:25;;;;;;;5.05;1.60;;;9.90;99.90;;;;;;5028185;28;20033;-21
2023/12/16 08:16:50;;;;;;;6.13;1.20;;;9.90;99.90;;;;;;5026514;28;20407;-20
2023/12/16 08:19:16;;;;;;;4.93;1.80;;;9.90;99.90;;;;;;5027888;28;20041;-20
2023/12/16 08:21:42;;;;;;;3.95;1.40;;;9.90;99.90;;;;;;4990476;28;20112;-20
2023/12/16 08:24:08;;;;;;;3.53;1.37;;;10.00;99.90;;;;;;5029036;28;20028;-20
2023/12/16 08:26:34;;;;;;;3.78;1.30;;;10.00;99.90;;;;;;4984075;28;20037;-21
2023/12/16 08:29:00;;;;;;;3.33;1.25;;;10.00;99.90;;;;;;4992875;28;20192;-20
2023/12/16 08:31:26;;;;;;;4.90;1.43;;;10.10;99.90;;;;;;5030072;28;20032;-20
2023/12/16 08:33:51;;;;;;;5.25;1.50;;;10.10;99.90;;;;;;5017823;28;20032;-20
2023/12/16 08:36:17;;;;;;;5.78;1.30;;;10.10;99.90;;;;;;5001892;28;20021;-20
2023/12/16 08:38:44;;;;;;;4.50;1.40;;;10.20;99.90;;;;;;5017870;28;20025;-20
2023/12/16 08:41:11;;;;;;;4.80;1.63;;;10.20;99.90;;;;;;5004104;28;20496;-20
2023/12/16 08:43:38;;;;;;;4.40;1.48;;;10.20;99.90;;;;;;5005273;28;20541;-21
2023/12/16 08:46:05;;;;;;;4.67;1.40;;;10.30;99.90;;;;;;5015557;28;20018;-20
2023/12/16 08:48:31;;;;;;;3.17;1.20;;;10.30;99.90;;;;;;5026536;28;20389;-21
2023/12/16 08:50:57;;;;;;;3.80;1.23;;;10.30;99.90;;;;;;5017846;28;20028;-20
2023/12/16 08:53:24;;;;;;;4.45;1.33;;;10.40;99.90;;;;;;5002503;28;20495;-23
2023/12/16 08:55:50;;;;;;;5.95;1.58;;;10.40;99.90;;;;;;5004387;28;20985;-23
2023/12/16 08:58:17;;;;;;;5.23;1.67;;;10.50;99.90;;;;;;5027857;28;20649;-23
2023/12/16 09:00:43;;;;;;;3.08;1.67;;;10.50;99.90;;;;;;5002578;28;20033;-23
2023/12/16 09:03:09;;;;;;;6.93;1.88;;;10.50;99.90;;;;;;5028719;28;20037;-23
2023/12/16 09:05:36;;;;;;;4.28;1.48;;;10.50;99.90;;;;;;5026871;28;20040;-23
2023/12/16 09:08:02;;;;;;;3.83;1.13;;;10.60;99.90;;;;;;4996324;28;20387;-22
2023/12/16 09:10:29;;;;;;;4.05;1.10;;;10.60;99.90;;;;;;5027667;28;20017;-22
2023/12/16 09:12:54;;;;;;;4.38;1.45;;;10.60;99.90;;;;;;5014409;28;20033;-23
2023/12/16 09:15:20;;;;;;;5.32;1.40;;;10.70;99.90;;;;;;5000045;28;20068;-23
2023/12/16 09:17:49;;;;;;;3.93;1.40;;;10.70;99.90;;;;;;4967743;28;20205;-23
2023/12/16 09:20:15;;;;;;;4.90;1.42;;;10.80;99.90;;;;;;5010275;28;20390;-23
2023/12/16 09:22:40;;;;;;;5.63;1.58;;;10.80;99.90;;;;;;4970074;28;20056;-22
2023/12/16 09:25:08;;;;;;;2.33;1.10;;;10.80;99.90;;;;;;5031056;28;20035;-23
2023/12/16 09:27:35;;;;;;;3.05;1.27;;;10.90;99.90;;;;;;5020025;28;20110;-22
2023/12/16 09:30:01;;;;;;;5.32;1.27;;;10.90;99.90;;;;;;5006750;28;20052;-23
2023/12/16 09:32:27;;;;;;;4.28;1.60;;;11.00;99.90;;;;;;5001774;28;20033;-23
2023/12/16 09:34:52;;;;;;;5.77;1.97;;;11.00;99.90;;;;;;5025475;28;20040;-23
2023/12/16 09:37:18;;;;;;;4.68;1.75;;;11.00;99.90;;;;;;5030209;28;20025;-22
2023/12/16 09:39:44;;;;;;;4.30;1.50;;;11.00;99.90;;;;;;5014706;28;20721;-23
2023/12/16 09:42:12;;;;;;;5.15;1.40;;;11.10;99.90;;;;;;5000655;28;20553;-22
2023/12/16 09:44:39;;;;;;;5.30;1.80;;;11.10;99.90;;;;;;5015573;28;20093;-23
2023/12/16 09:47:08;;;;;;;5.30;1.38;;;11.10;99.90;;;;;;5006343;28;20071;-23
2023/12/16 09:49:36;;;;;;;4.33;1.40;;;11.20;99.90;;;;;;4994822;28;20048;-22
2023/12/16 09:52:01;;;;;;;4.40;1.63;;;11.20;99.90;;;;;;4984326;28;20021;-23
2023/12/16 09:54:27;;;;;;;3.65;1.33;;;11.20;99.90;;;;;;5016508;28;20055;-22
2023/12/16 09:56:55;;;;;;;4.37;1.50;;;11.20;99.90;;;;;;5021691;28;20124;-23
2023/12/16 09:59:23;;;;;;;6.88;1.75;;;11.30;99.90;;;;;;5021741;28;20040;-23
2023/12/16 10:01:57;;;;;;;4.20;1.45;;;11.30;99.90;;;;;;4987657;28;20187;-22
2023/12/16 10:04:24;;;;;;;3.47;1.40;;;11.30;99.90;;;;;;5029235;28;20441;-23
2023/12/16 10:06:50;;;;;;;5.03;1.70;;;11.40;99.90;;;;;;5010367;28;20083;-23
2023/12/16 10:09:16;;;;;;;8.30;1.80;;;11.40;99.90;;;;;;5031694;28;20029;-23
2023/12/16 10:11:42;;;;;;;4.63;1.63;;;11.40;99.90;;;;;;5021149;28;20058;-23
2023/12/16 10:14:08;;;;;;;6.05;1.60;;;11.40;99.90;;;;;;5015209;28;20025;-23
2023/12/16 10:16:34;;;;;;;6.93;1.80;;;11.50;99.90;;;;;;5001957;28;20060;-22
2023/12/16 10:19:00;;;;;;;4.60;1.70;;;11.50;99.90;;;;;;5023026;28;20040;-23
2023/12/16 10:21:28;;;;;;;5.28;1.50;;;11.50;99.90;;;;;;5015123;28;20029;-23
2023/12/16 10:23:58;;;;;;;3.70;1.30;;;11.60;99.90;;;;;;5030406;28;20246;-23
2023/12/16 10:26:24;;;;;;;6.43;2.00;;;11.60;99.90;;;;;;5014344;28;20045;-23
2023/12/16 10:28:52;;;;;;;5.80;1.58;;;11.50;99.90;;;;;;5004178;28;20731;-23
2023/12/16 10:31:21;;;;;;;4.13;1.52;;;11.60;99.90;;;;;;4987382;28;20018;-23
2023/12/16 10:33:48;;;;;;;6.03;2.08;;;11.60;99.90;;;;;;5003046;28;20207;-23
2023/12/16 10:36:15;;;;;;;4.22;1.40;;;11.70;99.90;;;;;;5029166;28;20028;-23
2023/12/16 10:38:41;;;;;;;7.53;2.07;;;11.70;99.90;;;;;;5014110;28;20037;-22
2023/12/16 10:41:07;;;;;;;4.45;1.60;;;11.70;99.90;;;;;;5002690;28;20069;-24
2023/12/16 10:43:33;;;;;;;3.50;1.33;;;11.70;99.90;;;;;;5021479;28;20032;-23
2023/12/16 10:46:04;;;;;;;4.82;1.10;;;11.70;99.90;;;;;;5025746;28;20163;-22
2023/12/16 10:48:34;;;;;;;5.72;1.58;;;11.70;99.90;;;;;;4976380;28;20048;-22
2023/12/16 10:51:02;;;;;;;5.00;1.60;;;11.80;99.90;;;;;;5018216;28;20648;-23
2023/12/16 10:53:44;;;;;;;5.13;1.70;;;11.80;99.90;;;;;;5017227;28;20174;-23
2023/12/16 10:56:29;;;;;;;5.68;1.40;;;11.80;99.90;;;;;;4996991;28;20022;-23
2023/12/16 10:59:04;;;;;;;4.85;1.38;;;11.80;99.90;;;;;;5019284;28;20091;-23
2023/12/16 11:01:34;;;;;;;3.33;1.20;;;11.80;99.90;;;;;;5029211;28;20498;-23
2023/12/16 11:04:23;;;;;;;5.67;1.97;;;11.80;99.90;;;;;;5002348;28;20638;-23
2023/12/16 11:06:53;;;;;;;9.82;1.88;;;11.90;99.90;;;;;;5027091;28;20473;-23
2023/12/16 11:09:20;;;;;;;3.58;1.60;;;11.90;99.90;;;;;;5028413;28;20352;-23
2023/12/16 11:11:47;;;;;;;5.05;1.85;;;11.90;99.90;;;;;;5028084;28;20215;-23
2023/12/16 11:14:13;;;;;;;4.75;1.40;;;11.90;99.90;;;;;;5013307;28;20021;-23
2023/12/16 11:16:42;;;;;;;4.23;1.50;;;11.90;99.90;;;;;;5016160;28;20029;-22
2023/12/16 11:19:11;;;;;;;3.92;1.20;;;11.70;99.90;;;;;;4989606;28;20041;-23
2023/12/16 11:21:42;;;;;;;6.40;1.77;;;10.80;99.90;;;;;;5023893;28;20029;-22
2023/12/16 11:24:09;;;;;;;5.25;1.85;;;12.00;99.90;;;;;;5028984;28;20036;-23
2023/12/16 11:26:35;;;;;;;8.65;2.83;;;12.00;99.90;;;;;;5014983;28;20544;-23
2023/12/16 11:29:04;;;;;;;6.70;2.00;;;12.00;99.90;;;;;;5029586;28;20029;-23
2023/12/16 11:31:30;;;;;;;4.85;2.00;;;12.10;99.90;;;;;;4990348;28;20485;-22
2023/12/16 11:33:56;;;;;;;6.05;2.10;;;12.10;99.90;;;;;;5005431;28;20567;-23
2023/12/16 11:36:52;;;;;;;8.35;2.22;;;12.10;99.90;;;;;;5018196;28;20037;-23
2023/12/16 11:39:37;;;;;;;5.20;2.47;;;12.20;99.90;;;;;;5031240;28;20505;-23
2023/12/16 11:42:04;;;;;;;5.82;2.00;;;12.20;99.90;;;;;;4998821;28;20415;-22
2023/12/16 11:44:52;;;;;;;10.38;2.10;;;12.20;99.90;;;;;;5018067;28;20209;-22
2023/12/16 11:47:23;;;;;;;5.78;1.73;;;13.80;99.90;;;;;;5004493;28;20577;-23
2023/12/16 11:49:49;;;;;;;5.68;1.88;;;12.20;99.90;;;;;;5010320;28;20098;-23
2023/12/16 11:52:21;;;;;;;3.23;1.67;;;12.30;99.90;;;;;;5002090;28;20034;-23
2023/12/16 11:54:57;;;;;;;6.05;1.63;;;12.30;99.90;;;;;;5022009;28;20033;-23
2023/12/16 11:57:27;;;;;;;6.90;1.75;;;12.30;99.90;;;;;;5011690;28;20154;-23
2023/12/16 11:59:54;;;;;;;6.00;2.22;;;12.30;99.90;;;;;;4995393;28;20279;-23
2023/12/16 12:02:21;;;;;;;7.03;2.00;;;12.30;99.90;;;;;;5020100;28;20465;-23
2023/12/16 12:04:47;;;;;;;6.30;2.17;;;12.30;99.90;;;;;;5001319;28;21051;-23
2023/12/16 12:07:17;;;;;;;4.07;2.10;;;12.30;99.90;;;;;;5027422;28;20029;-23
2023/12/16 12:09:43;;;;;;;6.00;2.33;;;12.30;99.90;;;;;;5018730;28;20017;-23
2023/12/16 12:12:11;;;;;;;5.75;1.98;;;12.30;99.90;;;;;;5033498;28;20029;-23
2023/12/16 12:14:39;;;;;;;5.90;1.95;;;12.40;99.90;;;;;;5010360;28;20578;-22
2023/12/16 12:17:05;;;;;;;4.67;2.03;;;12.30;99.90;;;;;;5029908;28;20124;-23
2023/12/16 12:19:31;;;;;;;5.63;1.80;;;12.40;99.90;;;;;;5006061;28;20434;-22
2023/12/16 12:22:00;;;;;;;4.57;1.75;;;12.40;99.90;;;;;;4984636;28;20025;-23
2023/12/16 12:24:34;;;;;;;5.28;2.30;;;12.40;99.90;;;;;;5025691;28;20040;-21
2023/12/16 12:27:00;;;;;;;5.90;1.80;;;12.40;99.90;;;;;;5003223;28;20136;-20
2023/12/16 12:29:26;;;;;;;3.85;1.88;;;12.30;99.90;;;;;;5007886;28;20406;-21
2023/12/16 12:31:53;;;;;;;4.35;1.88;;;12.40;99.90;;;;;;4984627;28;20301;-20
2023/12/16 12:34:19;;;;;;;6.55;2.08;;;12.40;99.90;;;;;;5001008;28;20018;-20
2023/12/16 12:36:46;;;;;;;5.97;2.10;;;12.40;99.90;;;;;;4981720;28;20033;-20
2023/12/16 12:39:18;;;;;;;5.85;2.05;;;12.40;99.90;;;;;;5008648;28;20095;-21
2023/12/16 12:41:44;;;;;;;7.53;2.25;;;12.40;99.90;;;;;;4978567;28;20041;-20
2023/12/16 12:44:12;;;;;;;4.60;2.15;;;12.40;99.90;;;;;;5010878;28;20177;-20
2023/12/16 12:46:48;;;;;;;4.83;1.77;;;12.40;99.90;;;;;;4998095;28;20037;-21
2023/12/16 12:49:14;;;;;;;4.35;1.70;;;12.40;99.90;;;;;;4981288;28;20407;-20